sensor_id;sensor_type;location;lat;lon;timestamp;temperature;humidity
16829;DHT22;8531;48.078;11.968;2023-03-05T00:01:32;0.70;99.90
16829;DHT22;8531;48.078;11.968;2023-03-05T00:03:59;0.70;99.90
16829;DHT22;8531;48.078;11.968;2023-03-05T00:06:27;0.70;99.90
16829;DHT22;8531;48.078;11.968;2023-03-05T00:08:54;0.80;99.90
16829;DHT22;8531;48.078;11.968;2023-03-05T00:11:21;0.80;99.90
16829;DHT22;8531;48.078;11.968;2023-03-05T00:13:50;0.80;99.90
16829;DHT22;8531;48.078;11.968;2023-03-05T00:16:16;0.80;99.90
16829;DHT22;8531;48.078;11.968;2023-03-05T00:18:42;0.80;99.90
16829;DHT22;8531;48.078;11.968;2023-03-05T00:21:25;0.80;99.90
16829;DHT22;8531;48.078;11.968;2023-03-05T00:23:52;0.80;99.90
16829;DHT22;8531;48.078;11.968;2023-03-05T00:26:20;0.80;99.90
16829;DHT22;8531;48.078;11.968;2023-03-05T00:28:46;0.70;99.90
16829;DHT22;8531;48.078;11.968;2023-03-05T00:31:20;0.70;99.90
16829;DHT22;8531;48.078;11.968;2023-03-05T00:33:51;0.60;99.90
16829;DHT22;8531;48.078;11.968;2023-03-05T00:36:17;0.60;99.90
16829;DHT22;8531;48.078;11.968;2023-03-05T00:38:43;0.60;99.90
16829;DHT22;8531;48.078;11.968;2023-03-05T00:41:08;0.60;99.90
16829;DHT22;8531;48.078;11.968;2023-03-05T00:43:34;0.50;99.90
16829;DHT22;8531;48.078;11.968;2023-03-05T00:46:00;0.60;99.90
16829;DHT22;8531;48.078;11.968;2023-03-05T00:48:25;0.70;99.90
16829;DHT22;8531;48.078;11.968;2023-03-05T00:50:51;0.70;99.90
16829;DHT22;8531;48.078;11.968;2023-03-05T00:53:17;0.70;99.90
16829;DHT22;8531;48.078;11.968;2023-03-05T00:55:43;0.70;99.90
16829;DHT22;8531;48.078;11.968;2023-03-05T00:58:09;0.70;99.90
16829;DHT22;8531;48.078;11.968;2023-03-05T01:00:35;0.60;99.90
16829;DHT22;8531;48.078;11.968;2023-03-05T01:03:01;0.70;99.90
16829;DHT22;8531;48.078;11.968;2023-03-05T01:05:27;0.70;99.90
16829;DHT22;8531;48.078;11.968;2023-03-05T01:07:53;0.70;99.90
16829;DHT22;8531;48.078;11.968;2023-03-05T01:10:19;0.80;99.90
16829;DHT22;8531;48.078;11.968;2023-03-05T01:12:46;0.80;99.90
16829;DHT22;8531;48.078;11.968;2023-03-05T01:15:11;0.70;99.90
16829;DHT22;8531;48.078;11.968;2023-03-05T01:17:37;0.70;99.90
16829;DHT22;8531;48.078;11.968;2023-03-05T01:20:04;0.70;99.90
16829;DHT22;8531;48.078;11.968;2023-03-05T01:22:30;0.80;99.90
16829;DHT22;8531;48.078;11.968;2023-03-05T01:24:55;0.80;99.90
16829;DHT22;8531;48.078;11.968;2023-03-05T01:27:21;0.90;99.90
16829;DHT22;8531;48.078;11.968;2023-03-05T01:29:47;0.90;99.90
16829;DHT22;8531;48.078;11.968;2023-03-05T01:32:13;0.90;99.90
16829;DHT22;8531;48.078;11.968;2023-03-05T01:34:39;0.90;99.90
16829;DHT22;8531;48.078;11.968;2023-03-05T01:37:07;0.90;99.90
16829;DHT22;8531;48.078;11.968;2023-03-05T01:39:32;0.80;99.90
16829;DHT22;8531;48.078;11.968;2023-03-05T01:41:58;0.90;99.90
16829;DHT22;8531;48.078;11.968;2023-03-05T01:44:28;0.90;99.90
16829;DHT22;8531;48.078;11.968;2023-03-05T01:46:54;0.90;99.90
16829;DHT22;8531;48.078;11.968;2023-03-05T01:49:26;0.90;99.90
16829;DHT22;8531;48.078;11.968;2023-03-05T01:52:03;1.00;99.90
16829;DHT22;8531;48.078;11.968;2023-03-05T01:54:42;0.80;99.90
16829;DHT22;8531;48.078;11.968;2023-03-05T01:57:13;0.70;99.90
16829;DHT22;8531;48.078;11.968;2023-03-05T01:59:41;0.70;99.90
16829;DHT22;8531;48.078;11.968;2023-03-05T02:02:08;0.60;99.90
16829;DHT22;8531;48.078;11.968;2023-03-05T02:04:44;0.60;99.90
16829;DHT22;8531;48.078;11.968;2023-03-05T02:07:10;0.70;99.90
16829;DHT22;8531;48.078;11.968;2023-03-05T02:09:38;0.70;99.90
16829;DHT22;8531;48.078;11.968;2023-03-05T02:12:04;0.80;99.90
16829;DHT22;8531;48.078;11.968;2023-03-05T02:14:31;0.80;99.90
16829;DHT22;8531;48.078;11.968;2023-03-05T02:16:57;0.90;99.90
16829;DHT22;8531;48.078;11.968;2023-03-05T02:19:23;0.90;99.90
16829;DHT22;8531;48.078;11.968;2023-03-05T02:21:49;0.90;99.90
16829;DHT22;8531;48.078;11.968;2023-03-05T02:24:18;0.90;99.90
16829;DHT22;8531;48.078;11.968;2023-03-05T02:26:56;0.90;99.90
16829;DHT22;8531;48.078;11.968;2023-03-05T02:29:22;0.90;99.90
16829;DHT22;8531;48.078;11.968;2023-03-05T02:31:48;0.90;99.90
16829;DHT22;8531;48.078;11.968;2023-03-05T02:34:14;0.90;99.90
16829;DHT22;8531;48.078;11.968;2023-03-05T02:36:40;0.90;99.90
16829;DHT22;8531;48.078;11.968;2023-03-05T02:39:06;0.90;99.90
16829;DHT22;8531;48.078;11.968;2023-03-05T02:41:31;0.90;99.90
16829;DHT22;8531;48.078;11.968;2023-03-05T02:43:57;0.90;99.90
16829;DHT22;8531;48.078;11.968;2023-03-05T02:46:23;1.00;99.90
16829;DHT22;8531;48.078;11.968;2023-03-05T02:48:49;1.00;99.90
16829;DHT22;8531;48.078;11.968;2023-03-05T02:51:14;1.00;99.90
16829;DHT22;8531;48.078;11.968;2023-03-05T02:53:40;1.00;99.90
16829;DHT22;8531;48.078;11.968;2023-03-05T02:56:06;1.00;99.90
16829;DHT22;8531;48.078;11.968;2023-03-05T02:58:32;1.00;99.90
16829;DHT22;8531;48.078;11.968;2023-03-05T03:00:57;1.00;99.90
16829;DHT22;8531;48.078;11.968;2023-03-05T03:03:23;1.00;99.90
16829;DHT22;8531;48.078;11.968;2023-03-05T03:05:49;0.90;99.90
16829;DHT22;8531;48.078;11.968;2023-03-05T03:08:15;0.80;99.90
16829;DHT22;8531;48.078;11.968;2023-03-05T03:10:40;0.90;99.90
16829;DHT22;8531;48.078;11.968;2023-03-05T03:13:06;0.80;99.90
16829;DHT22;8531;48.078;11.968;2023-03-05T03:15:32;0.80;99.90
16829;DHT22;8531;48.078;11.968;2023-03-05T03:17:57;0.80;99.90
16829;DHT22;8531;48.078;11.968;2023-03-05T03:20:23;0.80;99.90
16829;DHT22;8531;48.078;11.968;2023-03-05T03:22:49;0.80;99.90
16829;DHT22;8531;48.078;11.968;2023-03-05T03:25:17;0.80;99.90
16829;DHT22;8531;48.078;11.968;2023-03-05T03:27:43;0.80;99.90
16829;DHT22;8531;48.078;11.968;2023-03-05T03:30:11;0.80;99.90
16829;DHT22;8531;48.078;11.968;2023-03-05T03:32:37;0.80;99.90
16829;DHT22;8531;48.078;11.968;2023-03-05T03:35:02;0.90;99.90
16829;DHT22;8531;48.078;11.968;2023-03-05T03:37:29;1.00;99.90
16829;DHT22;8531;48.078;11.968;2023-03-05T03:39:55;1.00;99.90
16829;DHT22;8531;48.078;11.968;2023-03-05T03:42:22;1.00;99.90
16829;DHT22;8531;48.078;11.968;2023-03-05T03:44:49;1.00;99.90
16829;DHT22;8531;48.078;11.968;2023-03-05T03:47:15;1.00;99.90
16829;DHT22;8531;48.078;11.968;2023-03-05T03:49:40;1.00;99.90
16829;DHT22;8531;48.078;11.968;2023-03-05T03:52:06;1.00;99.90
16829;DHT22;8531;48.078;11.968;2023-03-05T03:54:32;1.10;99.90
16829;DHT22;8531;48.078;11.968;2023-03-05T03:56:58;1.10;99.90
16829;DHT22;8531;48.078;11.968;2023-03-05T03:59:24;1.20;99.90
16829;DHT22;8531;48.078;11.968;2023-03-05T04:01:49;1.10;99.90
16829;DHT22;8531;48.078;11.968;2023-03-05T04:04:15;1.20;99.90
16829;DHT22;8531;48.078;11.968;2023-03-05T04:06:42;1.20;99.90
16829;DHT22;8531;48.078;11.968;2023-03-05T04:09:08;1.20;99.90
16829;DHT22;8531;48.078;11.968;2023-03-05T04:11:34;1.20;99.90
16829;DHT22;8531;48.078;11.968;2023-03-05T04:14:01;1.20;99.90
16829;DHT22;8531;48.078;11.968;2023-03-05T04:16:26;1.20;99.90
16829;DHT22;8531;48.078;11.968;2023-03-05T04:18:52;1.10;99.90
16829;DHT22;8531;48.078;11.968;2023-03-05T04:21:18;1.10;99.90
16829;DHT22;8531;48.078;11.968;2023-03-05T04:23:44;1.20;99.90
16829;DHT22;8531;48.078;11.968;2023-03-05T04:26:10;1.20;99.90
16829;DHT22;8531;48.078;11.968;2023-03-05T04:28:36;1.30;99.90
16829;DHT22;8531;48.078;11.968;2023-03-05T04:31:02;1.20;99.90
16829;DHT22;8531;48.078;11.968;2023-03-05T04:33:28;1.20;99.90
16829;DHT22;8531;48.078;11.968;2023-03-05T04:35:53;1.20;99.90
16829;DHT22;8531;48.078;11.968;2023-03-05T04:38:19;1.20;99.90
16829;DHT22;8531;48.078;11.968;2023-03-05T04:40:45;1.20;99.90
16829;DHT22;8531;48.078;11.968;2023-03-05T04:43:11;1.30;99.90
16829;DHT22;8531;48.078;11.968;2023-03-05T04:45:41;1.30;99.90
16829;DHT22;8531;48.078;11.968;2023-03-05T04:48:07;1.30;99.90
16829;DHT22;8531;48.078;11.968;2023-03-05T04:50:33;1.30;99.90
16829;DHT22;8531;48.078;11.968;2023-03-05T04:52:59;1.40;99.90
16829;DHT22;8531;48.078;11.968;2023-03-05T04:55:25;1.40;99.90
16829;DHT22;8531;48.078;11.968;2023-03-05T04:57:51;1.40;99.90
16829;DHT22;8531;48.078;11.968;2023-03-05T05:00:17;1.40;99.90
16829;DHT22;8531;48.078;11.968;2023-03-05T05:02:45;1.30;99.90
16829;DHT22;8531;48.078;11.968;2023-03-05T05:05:13;1.40;99.90
16829;DHT22;8531;48.078;11.968;2023-03-05T05:07:40;1.40;99.90
16829;DHT22;8531;48.078;11.968;2023-03-05T05:10:06;1.40;99.90
16829;DHT22;8531;48.078;11.968;2023-03-05T05:12:35;1.50;99.90
16829;DHT22;8531;48.078;11.968;2023-03-05T05:15:02;1.40;99.90
16829;DHT22;8531;48.078;11.968;2023-03-05T05:17:29;1.50;99.90
16829;DHT22;8531;48.078;11.968;2023-03-05T05:19:58;1.40;99.90
16829;DHT22;8531;48.078;11.968;2023-03-05T05:22:24;1.30;99.90
16829;DHT22;8531;48.078;11.968;2023-03-05T05:24:49;1.40;99.90
16829;DHT22;8531;48.078;11.968;2023-03-05T05:27:15;1.40;99.90
16829;DHT22;8531;48.078;11.968;2023-03-05T05:29:41;1.40;99.90
16829;DHT22;8531;48.078;11.968;2023-03-05T05:32:07;1.40;99.90
16829;DHT22;8531;48.078;11.968;2023-03-05T05:34:32;1.30;99.90
16829;DHT22;8531;48.078;11.968;2023-03-05T05:36:58;1.40;99.90
16829;DHT22;8531;48.078;11.968;2023-03-05T05:39:24;1.30;99.90
16829;DHT22;8531;48.078;11.968;2023-03-05T05:41:50;1.30;99.90
16829;DHT22;8531;48.078;11.968;2023-03-05T05:44:16;1.40;99.90
16829;DHT22;8531;48.078;11.968;2023-03-05T05:46:42;1.40;99.90
16829;DHT22;8531;48.078;11.968;2023-03-05T05:49:08;1.40;99.90
16829;DHT22;8531;48.078;11.968;2023-03-05T05:51:33;1.40;99.90
16829;DHT22;8531;48.078;11.968;2023-03-05T05:53:59;1.50;99.90
16829;DHT22;8531;48.078;11.968;2023-03-05T05:56:25;1.50;99.90
16829;DHT22;8531;48.078;11.968;2023-03-05T05:58:50;1.50;99.90
16829;DHT22;8531;48.078;11.968;2023-03-05T06:01:22;1.50;99.90
16829;DHT22;8531;48.078;11.968;2023-03-05T06:03:48;1.50;99.90
16829;DHT22;8531;48.078;11.968;2023-03-05T06:06:16;1.50;99.90
16829;DHT22;8531;48.078;11.968;2023-03-05T06:08:42;1.60;99.90
16829;DHT22;8531;48.078;11.968;2023-03-05T06:11:09;1.50;99.90
16829;DHT22;8531;48.078;11.968;2023-03-05T06:13:35;1.50;99.90
16829;DHT22;8531;48.078;11.968;2023-03-05T06:16:03;1.60;99.90
16829;DHT22;8531;48.078;11.968;2023-03-05T06:18:29;1.60;99.90
16829;DHT22;8531;48.078;11.968;2023-03-05T06:21:04;1.70;99.90
16829;DHT22;8531;48.078;11.968;2023-03-05T06:23:31;1.70;99.90
16829;DHT22;8531;48.078;11.968;2023-03-05T06:26:02;1.70;99.90
16829;DHT22;8531;48.078;11.968;2023-03-05T06:28:29;1.70;99.90
16829;DHT22;8531;48.078;11.968;2023-03-05T06:31:10;1.70;99.90
16829;DHT22;8531;48.078;11.968;2023-03-05T06:33:36;1.70;99.90
16829;DHT22;8531;48.078;11.968;2023-03-05T06:36:07;1.60;99.90
16829;DHT22;8531;48.078;11.968;2023-03-05T06:38:34;1.60;99.90
16829;DHT22;8531;48.078;11.968;2023-03-05T06:41:05;1.70;99.90
16829;DHT22;8531;48.078;11.968;2023-03-05T06:43:32;1.60;99.90
16829;DHT22;8531;48.078;11.968;2023-03-05T06:46:06;1.60;99.90
16829;DHT22;8531;48.078;11.968;2023-03-05T06:48:32;1.60;99.90
16829;DHT22;8531;48.078;11.968;2023-03-05T06:50:58;1.60;99.90
16829;DHT22;8531;48.078;11.968;2023-03-05T06:53:24;1.60;99.90
16829;DHT22;8531;48.078;11.968;2023-03-05T06:55:51;1.70;99.90
16829;DHT22;8531;48.078;11.968;2023-03-05T06:58:17;1.70;99.90
16829;DHT22;8531;48.078;11.968;2023-03-05T07:00:43;1.70;99.90
16829;DHT22;8531;48.078;11.968;2023-03-05T07:03:09;1.80;99.90
16829;DHT22;8531;48.078;11.968;2023-03-05T07:05:39;1.80;99.90
16829;DHT22;8531;48.078;11.968;2023-03-05T07:08:05;1.80;99.90
16829;DHT22;8531;48.078;11.968;2023-03-05T07:10:31;1.70;99.90
16829;DHT22;8531;48.078;11.968;2023-03-05T07:12:56;1.70;99.90
16829;DHT22;8531;48.078;11.968;2023-03-05T07:15:23;1.70;99.90
16829;DHT22;8531;48.078;11.968;2023-03-05T07:17:49;1.80;99.90
16829;DHT22;8531;48.078;11.968;2023-03-05T07:20:14;1.90;99.90
16829;DHT22;8531;48.078;11.968;2023-03-05T07:22:40;1.90;99.90
16829;DHT22;8531;48.078;11.968;2023-03-05T07:25:06;1.90;99.90
16829;DHT22;8531;48.078;11.968;2023-03-05T07:27:36;2.00;99.90
16829;DHT22;8531;48.078;11.968;2023-03-05T07:30:03;2.00;99.90
16829;DHT22;8531;48.078;11.968;2023-03-05T07:32:29;1.90;99.90
16829;DHT22;8531;48.078;11.968;2023-03-05T07:34:54;2.00;99.90
16829;DHT22;8531;48.078;11.968;2023-03-05T07:37:20;1.90;99.90
16829;DHT22;8531;48.078;11.968;2023-03-05T07:39:46;2.00;99.90
16829;DHT22;8531;48.078;11.968;2023-03-05T07:42:11;2.00;99.90
16829;DHT22;8531;48.078;11.968;2023-03-05T07:44:37;2.10;99.90
16829;DHT22;8531;48.078;11.968;2023-03-05T07:47:04;2.10;99.90
16829;DHT22;8531;48.078;11.968;2023-03-05T07:49:29;2.20;99.90
16829;DHT22;8531;48.078;11.968;2023-03-05T07:51:55;2.20;99.90
16829;DHT22;8531;48.078;11.968;2023-03-05T07:54:21;2.20;99.90
16829;DHT22;8531;48.078;11.968;2023-03-05T07:56:47;2.10;99.90
16829;DHT22;8531;48.078;11.968;2023-03-05T07:59:13;2.10;99.90
16829;DHT22;8531;48.078;11.968;2023-03-05T08:01:39;2.10;99.90
16829;DHT22;8531;48.078;11.968;2023-03-05T08:04:05;2.20;99.90
16829;DHT22;8531;48.078;11.968;2023-03-05T08:06:31;2.30;99.90
16829;DHT22;8531;48.078;11.968;2023-03-05T08:08:58;2.30;99.90
16829;DHT22;8531;48.078;11.968;2023-03-05T08:11:24;2.40;99.90
16829;DHT22;8531;48.078;11.968;2023-03-05T08:13:50;2.40;99.90
16829;DHT22;8531;48.078;11.968;2023-03-05T08:16:18;2.40;99.90
16829;DHT22;8531;48.078;11.968;2023-03-05T08:18:44;2.40;99.90
16829;DHT22;8531;48.078;11.968;2023-03-05T08:21:22;2.40;99.90
16829;DHT22;8531;48.078;11.968;2023-03-05T08:23:56;2.40;99.90
16829;DHT22;8531;48.078;11.968;2023-03-05T08:26:23;2.30;99.90
16829;DHT22;8531;48.078;11.968;2023-03-05T08:28:50;2.30;99.90
16829;DHT22;8531;48.078;11.968;2023-03-05T08:31:19;2.40;99.90
16829;DHT22;8531;48.078;11.968;2023-03-05T08:33:46;2.40;99.90
16829;DHT22;8531;48.078;11.968;2023-03-05T08:36:12;2.50;99.90
16829;DHT22;8531;48.078;11.968;2023-03-05T08:38:38;2.50;99.90
16829;DHT22;8531;48.078;11.968;2023-03-05T08:41:04;2.40;99.90
16829;DHT22;8531;48.078;11.968;2023-03-05T08:43:30;2.50;99.90
16829;DHT22;8531;48.078;11.968;2023-03-05T08:45:56;2.50;99.90
16829;DHT22;8531;48.078;11.968;2023-03-05T08:48:22;2.50;99.90
16829;DHT22;8531;48.078;11.968;2023-03-05T08:50:47;2.50;99.90
16829;DHT22;8531;48.078;11.968;2023-03-05T08:53:14;2.50;99.90
16829;DHT22;8531;48.078;11.968;2023-03-05T08:55:40;2.60;99.90
16829;DHT22;8531;48.078;11.968;2023-03-05T08:58:05;2.70;99.90
16829;DHT22;8531;48.078;11.968;2023-03-05T09:00:31;2.90;99.90
16829;DHT22;8531;48.078;11.968;2023-03-05T09:02:57;3.00;99.90
16829;DHT22;8531;48.078;11.968;2023-03-05T09:05:22;2.80;99.90
16829;DHT22;8531;48.078;11.968;2023-03-05T09:07:48;2.80;99.90
16829;DHT22;8531;48.078;11.968;2023-03-05T09:10:14;2.80;99.90
16829;DHT22;8531;48.078;11.968;2023-03-05T09:12:41;2.80;99.90
16829;DHT22;8531;48.078;11.968;2023-03-05T09:15:07;2.90;99.90
16829;DHT22;8531;48.078;11.968;2023-03-05T09:17:37;3.00;99.90
16829;DHT22;8531;48.078;11.968;2023-03-05T09:20:06;3.00;99.90
16829;DHT22;8531;48.078;11.968;2023-03-05T09:22:32;3.10;99.90
16829;DHT22;8531;48.078;11.968;2023-03-05T09:24:58;3.10;99.90
16829;DHT22;8531;48.078;11.968;2023-03-05T09:27:24;3.20;99.90
16829;DHT22;8531;48.078;11.968;2023-03-05T09:29:49;3.20;99.90
16829;DHT22;8531;48.078;11.968;2023-03-05T09:32:16;3.30;99.90
16829;DHT22;8531;48.078;11.968;2023-03-05T09:34:42;3.30;99.90
16829;DHT22;8531;48.078;11.968;2023-03-05T09:37:08;3.40;99.90
16829;DHT22;8531;48.078;11.968;2023-03-05T09:39:34;3.40;99.90
16829;DHT22;8531;48.078;11.968;2023-03-05T09:42:28;3.40;99.90
16829;DHT22;8531;48.078;11.968;2023-03-05T09:47:52;3.70;99.90
16829;DHT22;8531;48.078;11.968;2023-03-05T09:55:47;3.80;99.90
16829;DHT22;8531;48.078;11.968;2023-03-05T09:58:47;3.70;99.90
16829;DHT22;8531;48.078;11.968;2023-03-05T10:01:14;3.60;99.90
16829;DHT22;8531;48.078;11.968;2023-03-05T10:03:56;3.60;99.90
16829;DHT22;8531;48.078;11.968;2023-03-05T10:06:36;3.60;99.90
16829;DHT22;8531;48.078;11.968;2023-03-05T10:14:01;3.90;99.90
16829;DHT22;8531;48.078;11.968;2023-03-05T10:22:17;3.90;99.90
16829;DHT22;8531;48.078;11.968;2023-03-05T10:27:20;4.00;99.90
16829;DHT22;8531;48.078;11.968;2023-03-05T10:40:37;4.00;99.90
16829;DHT22;8531;48.078;11.968;2023-03-05T10:45:53;4.00;99.90
16829;DHT22;8531;48.078;11.968;2023-03-05T10:51:09;4.00;99.90
16829;DHT22;8531;48.078;11.968;2023-03-05T10:53:56;4.10;99.90
16829;DHT22;8531;48.078;11.968;2023-03-05T10:56:24;4.10;99.90
16829;DHT22;8531;48.078;11.968;2023-03-05T10:58:51;4.20;99.90
16829;DHT22;8531;48.078;11.968;2023-03-05T11:06:42;4.20;99.90
16829;DHT22;8531;48.078;11.968;2023-03-05T11:14:40;4.50;99.90
16829;DHT22;8531;48.078;11.968;2023-03-05T11:17:45;4.60;99.90
16829;DHT22;8531;48.078;11.968;2023-03-05T11:20:22;4.50;99.90
16829;DHT22;8531;48.078;11.968;2023-03-05T11:28:28;4.30;99.90
16829;DHT22;8531;48.078;11.968;2023-03-05T11:36:25;4.20;99.90
16829;DHT22;8531;48.078;11.968;2023-03-05T11:38:57;4.30;99.90
16829;DHT22;8531;48.078;11.968;2023-03-05T11:41:51;4.40;99.90
16829;DHT22;8531;48.078;11.968;2023-03-05T11:49:48;4.40;99.90
16829;DHT22;8531;48.078;11.968;2023-03-05T11:52:29;4.60;99.90
16829;DHT22;8531;48.078;11.968;2023-03-05T11:55:44;4.60;99.90
16829;DHT22;8531;48.078;11.968;2023-03-05T12:00:42;4.80;99.90
16829;DHT22;8531;48.078;11.968;2023-03-05T12:03:13;4.90;99.90
16829;DHT22;8531;48.078;11.968;2023-03-05T12:05:43;4.90;99.90
16829;DHT22;8531;48.078;11.968;2023-03-05T12:08:17;4.80;99.90
16829;DHT22;8531;48.078;11.968;2023-03-05T12:10:45;4.80;99.90
16829;DHT22;8531;48.078;11.968;2023-03-05T12:13:28;4.70;99.90
16829;DHT22;8531;48.078;11.968;2023-03-05T12:21:38;5.00;99.90
16829;DHT22;8531;48.078;11.968;2023-03-05T12:35:04;5.00;99.90
16829;DHT22;8531;48.078;11.968;2023-03-05T12:39:59;4.90;99.90
16829;DHT22;8531;48.078;11.968;2023-03-05T12:47:46;4.90;99.90
16829;DHT22;8531;48.078;11.968;2023-03-05T12:53:11;4.80;99.90
16829;DHT22;8531;48.078;11.968;2023-03-05T12:58:18;4.70;99.90
16829;DHT22;8531;48.078;11.968;2023-03-05T13:03:44;4.80;99.90
16829;DHT22;8531;48.078;11.968;2023-03-05T13:06:27;4.70;99.90
16829;DHT22;8531;48.078;11.968;2023-03-05T13:09:17;4.60;99.90
16829;DHT22;8531;48.078;11.968;2023-03-05T13:11:46;4.40;99.90
16829;DHT22;8531;48.078;11.968;2023-03-05T13:17:29;4.40;99.90
16829;DHT22;8531;48.078;11.968;2023-03-05T13:19:56;4.40;99.90
16829;DHT22;8531;48.078;11.968;2023-03-05T13:22:22;4.30;99.90
16829;DHT22;8531;48.078;11.968;2023-03-05T13:25:12;4.40;99.90
16829;DHT22;8531;48.078;11.968;2023-03-05T13:27:38;4.40;99.90
16829;DHT22;8531;48.078;11.968;2023-03-05T13:30:04;4.50;99.90
16829;DHT22;8531;48.078;11.968;2023-03-05T13:32:31;4.50;99.90
16829;DHT22;8531;48.078;11.968;2023-03-05T13:34:59;4.50;99.90
16829;DHT22;8531;48.078;11.968;2023-03-05T13:37:36;4.60;99.90
16829;DHT22;8531;48.078;11.968;2023-03-05T13:42:41;4.80;99.90
16829;DHT22;8531;48.078;11.968;2023-03-05T13:45:27;4.70;99.90
16829;DHT22;8531;48.078;11.968;2023-03-05T13:47:59;4.90;99.90
16829;DHT22;8531;48.078;11.968;2023-03-05T13:50:27;4.90;99.90
16829;DHT22;8531;48.078;11.968;2023-03-05T13:52:53;4.80;99.90
16829;DHT22;8531;48.078;11.968;2023-03-05T13:55:19;4.70;99.90
16829;DHT22;8531;48.078;11.968;2023-03-05T13:57:50;4.60;99.90
16829;DHT22;8531;48.078;11.968;2023-03-05T14:00:34;4.60;99.90
16829;DHT22;8531;48.078;11.968;2023-03-05T14:03:09;4.50;99.90
16829;DHT22;8531;48.078;11.968;2023-03-05T14:05:35;4.60;99.90
16829;DHT22;8531;48.078;11.968;2023-03-05T14:08:01;4.70;99.90
16829;DHT22;8531;48.078;11.968;2023-03-05T14:10:35;4.70;99.90
16829;DHT22;8531;48.078;11.968;2023-03-05T14:13:05;4.70;99.90
16829;DHT22;8531;48.078;11.968;2023-03-05T14:15:35;4.70;99.90
16829;DHT22;8531;48.078;11.968;2023-03-05T14:20:38;4.80;99.90
16829;DHT22;8531;48.078;11.968;2023-03-05T14:23:33;4.60;99.90
16829;DHT22;8531;48.078;11.968;2023-03-05T14:31:23;4.60;99.90
16829;DHT22;8531;48.078;11.968;2023-03-05T14:33:50;4.50;99.90
16829;DHT22;8531;48.078;11.968;2023-03-05T14:36:24;4.50;99.90
16829;DHT22;8531;48.078;11.968;2023-03-05T14:38:51;4.40;99.90
16829;DHT22;8531;48.078;11.968;2023-03-05T14:41:39;4.30;99.90
16829;DHT22;8531;48.078;11.968;2023-03-05T14:44:16;4.30;99.90
16829;DHT22;8531;48.078;11.968;2023-03-05T14:46:46;4.30;99.90
16829;DHT22;8531;48.078;11.968;2023-03-05T14:49:12;4.30;99.90
16829;DHT22;8531;48.078;11.968;2023-03-05T14:51:40;4.30;99.90
16829;DHT22;8531;48.078;11.968;2023-03-05T14:54:15;4.30;99.90
16829;DHT22;8531;48.078;11.968;2023-03-05T14:56:41;4.30;99.90
16829;DHT22;8531;48.078;11.968;2023-03-05T14:59:08;4.20;99.90
16829;DHT22;8531;48.078;11.968;2023-03-05T15:01:34;4.30;99.90
16829;DHT22;8531;48.078;11.968;2023-03-05T15:03:59;4.30;99.90
16829;DHT22;8531;48.078;11.968;2023-03-05T15:06:33;4.40;99.90
16829;DHT22;8531;48.078;11.968;2023-03-05T15:09:01;4.40;99.90
16829;DHT22;8531;48.078;11.968;2023-03-05T15:11:28;4.40;99.90
16829;DHT22;8531;48.078;11.968;2023-03-05T15:13:54;4.40;99.90
16829;DHT22;8531;48.078;11.968;2023-03-05T15:16:20;4.30;99.90
16829;DHT22;8531;48.078;11.968;2023-03-05T15:18:47;4.20;99.90
16829;DHT22;8531;48.078;11.968;2023-03-05T15:21:13;4.30;99.90
16829;DHT22;8531;48.078;11.968;2023-03-05T15:23:39;4.30;99.90
16829;DHT22;8531;48.078;11.968;2023-03-05T15:26:07;4.30;99.90
16829;DHT22;8531;48.078;11.968;2023-03-05T15:28:35;4.30;99.90
16829;DHT22;8531;48.078;11.968;2023-03-05T15:31:02;4.40;99.90
16829;DHT22;8531;48.078;11.968;2023-03-05T15:33:28;4.50;99.90
16829;DHT22;8531;48.078;11.968;2023-03-05T15:35:54;4.40;99.90
16829;DHT22;8531;48.078;11.968;2023-03-05T15:38:20;4.30;99.90
16829;DHT22;8531;48.078;11.968;2023-03-05T15:40:46;4.20;99.90
16829;DHT22;8531;48.078;11.968;2023-03-05T15:43:12;4.10;99.90
16829;DHT22;8531;48.078;11.968;2023-03-05T15:45:38;4.00;99.90
16829;DHT22;8531;48.078;11.968;2023-03-05T15:48:03;4.00;99.90
16829;DHT22;8531;48.078;11.968;2023-03-05T15:50:29;4.00;99.90
16829;DHT22;8531;48.078;11.968;2023-03-05T15:52:56;4.00;99.90
16829;DHT22;8531;48.078;11.968;2023-03-05T15:55:22;4.00;99.90
16829;DHT22;8531;48.078;11.968;2023-03-05T15:57:49;4.00;99.90
16829;DHT22;8531;48.078;11.968;2023-03-05T16:00:19;3.90;99.90
16829;DHT22;8531;48.078;11.968;2023-03-05T16:02:45;3.80;99.90
16829;DHT22;8531;48.078;11.968;2023-03-05T16:05:10;3.80;99.90
16829;DHT22;8531;48.078;11.968;2023-03-05T16:07:38;3.90;99.90
16829;DHT22;8531;48.078;11.968;2023-03-05T16:10:06;3.90;99.90
16829;DHT22;8531;48.078;11.968;2023-03-05T16:12:37;4.00;99.90
16829;DHT22;8531;48.078;11.968;2023-03-05T16:15:15;3.90;99.90
16829;DHT22;8531;48.078;11.968;2023-03-05T16:17:41;4.00;99.90
16829;DHT22;8531;48.078;11.968;2023-03-05T16:20:10;3.90;99.90
16829;DHT22;8531;48.078;11.968;2023-03-05T16:22:36;3.90;99.90
16829;DHT22;8531;48.078;11.968;2023-03-05T16:25:02;4.10;99.90
16829;DHT22;8531;48.078;11.968;2023-03-05T16:27:28;4.10;99.90
16829;DHT22;8531;48.078;11.968;2023-03-05T16:29:54;4.00;99.90
16829;DHT22;8531;48.078;11.968;2023-03-05T16:32:20;4.00;99.90
16829;DHT22;8531;48.078;11.968;2023-03-05T16:34:45;3.90;99.90
16829;DHT22;8531;48.078;11.968;2023-03-05T16:37:20;3.90;99.90
16829;DHT22;8531;48.078;11.968;2023-03-05T16:39:47;3.80;99.90
16829;DHT22;8531;48.078;11.968;2023-03-05T16:42:13;3.80;99.90
16829;DHT22;8531;48.078;11.968;2023-03-05T16:44:40;3.80;99.90
16829;DHT22;8531;48.078;11.968;2023-03-05T16:47:05;3.80;99.90
16829;DHT22;8531;48.078;11.968;2023-03-05T16:49:32;3.80;99.90
16829;DHT22;8531;48.078;11.968;2023-03-05T16:52:00;3.80;99.90
16829;DHT22;8531;48.078;11.968;2023-03-05T16:54:26;3.80;99.90
16829;DHT22;8531;48.078;11.968;2023-03-05T16:56:51;3.80;99.90
16829;DHT22;8531;48.078;11.968;2023-03-05T16:59:18;3.80;99.90
16829;DHT22;8531;48.078;11.968;2023-03-05T17:01:43;3.80;99.90
16829;DHT22;8531;48.078;11.968;2023-03-05T17:04:10;3.80;99.90
16829;DHT22;8531;48.078;11.968;2023-03-05T17:06:35;3.80;99.90
16829;DHT22;8531;48.078;11.968;2023-03-05T17:09:02;3.70;99.90
16829;DHT22;8531;48.078;11.968;2023-03-05T17:11:28;3.80;99.90
16829;DHT22;8531;48.078;11.968;2023-03-05T17:13:54;3.80;99.90
16829;DHT22;8531;48.078;11.968;2023-03-05T17:16:20;3.70;99.90
16829;DHT22;8531;48.078;11.968;2023-03-05T17:21:14;3.60;99.90
16829;DHT22;8531;48.078;11.968;2023-03-05T17:23:40;3.60;99.90
16829;DHT22;8531;48.078;11.968;2023-03-05T17:26:09;3.50;99.90
16829;DHT22;8531;48.078;11.968;2023-03-05T17:28:35;3.50;99.90
16829;DHT22;8531;48.078;11.968;2023-03-05T17:31:01;3.60;99.90
16829;DHT22;8531;48.078;11.968;2023-03-05T17:33:32;3.60;99.90
16829;DHT22;8531;48.078;11.968;2023-03-05T17:35:58;3.70;99.90
16829;DHT22;8531;48.078;11.968;2023-03-05T17:38:23;3.60;99.90
16829;DHT22;8531;48.078;11.968;2023-03-05T17:40:49;3.60;99.90
16829;DHT22;8531;48.078;11.968;2023-03-05T17:43:15;3.50;99.90
16829;DHT22;8531;48.078;11.968;2023-03-05T17:45:40;3.50;99.90
16829;DHT22;8531;48.078;11.968;2023-03-05T17:48:06;3.50;99.90